Time;durP1;ratioP1;P1;durP2;ratioP2;P2;SDS_P1;SDS_P2;PMS_P1;PMS_P2;Temp;Humidity;BMP_temperature;BMP_pressure;BME280_temperature;BME280_humidity;BME280_pressure;Samples;Min_cycle;Max_cycle;Signal;HPM_P1;HPM_P2
2021/06/22 00:02:13;;;;;;;15.20;6.75;;;;;;;12.98;84.43;101804.03;4993863;28;20072;-68
2021/06/22 00:04:40;;;;;;;15.32;5.90;;;;;;;13.00;84.53;101818.25;4996373;28;20069;-68
2021/06/22 00:07:08;;;;;;;12.50;5.60;;;;;;;13.06;84.45;101815.44;4999414;28;20104;-68
2021/06/22 00:09:36;;;;;;;15.70;6.15;;;;;;;13.05;84.45;101818.16;4995868;28;20069;-69
2021/06/22 00:12:04;;;;;;;12.18;5.85;;;;;;;13.03;84.27;101814.63;4997174;28;20065;-68
2021/06/22 00:14:32;;;;;;;14.88;5.97;;;;;;;13.01;84.36;101812.00;4991593;28;20440;-69
2021/06/22 00:17:00;;;;;;;11.93;5.50;;;;;;;13.02;84.18;101820.91;4997091;28;20062;-70
2021/06/22 00:19:30;;;;;;;13.20;6.00;;;;;;;12.98;83.99;101827.28;4996369;28;20145;-70
2021/06/22 00:21:57;;;;;;;13.75;6.03;;;;;;;13.02;84.57;101829.81;4996145;28;20384;-71
2021/06/22 00:24:25;;;;;;;11.60;5.35;;;;;;;13.01;84.13;101824.53;4990796;28;20809;-70
2021/06/22 00:26:53;;;;;;;12.90;5.90;;;;;;;13.01;84.44;101825.41;4996422;28;20323;-70
2021/06/22 00:29:23;;;;;;;13.02;6.03;;;;;;;13.01;84.00;101829.88;4993757;28;20057;-70
2021/06/22 00:31:51;;;;;;;12.68;6.15;;;;;;;12.97;84.26;101828.19;4995088;28;20089;-70
2021/06/22 00:34:18;;;;;;;13.05;6.72;;;;;;;12.99;84.41;101826.34;4993712;28;20058;-70
2021/06/22 00:36:48;;;;;;;12.75;6.03;;;;;;;12.98;84.43;101820.13;4995688;28;20065;-70
2021/06/22 00:39:16;;;;;;;14.70;6.20;;;;;;;12.92;84.04;101820.25;4995151;28;20062;-72
2021/06/22 00:41:44;;;;;;;16.30;6.78;;;;;;;12.95;84.15;101813.97;4996974;28;20058;-69
2021/06/22 00:44:12;;;;;;;12.98;6.10;;;;;;;12.97;83.08;101804.06;5001144;28;20124;-70
2021/06/22 00:46:39;;;;;;;13.93;5.45;;;;;;;12.95;83.27;101796.06;4992119;28;20065;-68
2021/06/22 00:49:07;;;;;;;14.00;6.15;;;;;;;12.91;83.16;101790.88;4997561;28;20061;-67
2021/06/22 00:51:35;;;;;;;11.13;5.60;;;;;;;12.89;82.51;101793.59;4992050;28;20384;-70
2021/06/22 00:54:05;;;;;;;13.27;5.55;;;;;;;12.87;82.08;101784.69;4990762;28;20112;-68
2021/06/22 00:56:33;;;;;;;14.13;5.65;;;;;;;12.87;82.32;101780.22;5002879;28;20076;-68
2021/06/22 00:59:00;;;;;;;12.77;5.10;;;;;;;12.88;82.17;101781.09;4996952;28;20069;-69
2021/06/22 01:01:28;;;;;;;13.30;5.65;;;;;;;12.81;82.00;101784.88;4996123;28;20108;-68
2021/06/22 01:03:56;;;;;;;13.73;5.93;;;;;;;12.85;82.15;101786.53;4996836;28;20062;-70
2021/06/22 01:06:25;;;;;;;12.15;5.47;;;;;;;12.81;82.07;101787.53;5000591;28;20077;-70
2021/06/22 01:08:53;;;;;;;10.93;5.10;;;;;;;12.78;82.29;101784.94;4999516;28;20282;-68
2021/06/22 01:11:22;;;;;;;12.88;5.60;;;;;;;12.79;82.67;101786.72;4991049;28;20062;-68
2021/06/22 01:13:50;;;;;;;11.07;4.57;;;;;;;12.80;82.48;101793.81;4994806;28;20066;-69
2021/06/22 01:16:23;;;;;;;12.88;5.03;;;;;;;12.77;81.83;101793.88;4991924;28;20139;-69
2021/06/22 01:18:58;;;;;;;11.93;6.00;;;;;;;12.79;82.40;101794.75;4994145;28;20066;-68
2021/06/22 01:21:28;;;;;;;11.02;5.20;;;;;;;12.75;82.73;101801.94;4994278;28;20378;-68
2021/06/22 01:24:04;;;;;;;12.25;5.53;;;;;;;12.75;82.54;101811.78;4995788;28;20065;-68
2021/06/22 01:26:32;;;;;;;14.10;5.65;;;;;;;12.71;82.87;101825.25;4990121;28;20064;-68
2021/06/22 01:29:00;;;;;;;11.90;5.10;;;;;;;12.75;82.98;101818.03;4993904;28;20058;-69
2021/06/22 01:31:28;;;;;;;14.75;5.95;;;;;;;12.76;83.07;101818.91;4993006;28;20065;-69
2021/06/22 01:33:56;;;;;;;9.90;5.57;;;;;;;12.76;84.12;101830.50;4998409;28;20104;-69
2021/06/22 01:36:26;;;;;;;13.48;5.50;;;;;;;12.74;83.95;101818.97;4994749;28;20530;-69
2021/06/22 01:38:56;;;;;;;15.65;5.30;;;;;;;12.74;83.98;101823.44;4994014;28;20081;-69
2021/06/22 01:41:24;;;;;;;12.85;5.43;;;;;;;12.70;84.32;101823.50;4991319;28;20088;-69
2021/06/22 01:43:52;;;;;;;15.02;6.72;;;;;;;12.68;84.47;101833.38;5003081;28;20360;-69
2021/06/22 01:46:20;;;;;;;14.45;6.22;;;;;;;12.65;84.66;101828.09;4995313;28;20076;-69
2021/06/22 01:48:48;;;;;;;10.65;5.65;;;;;;;12.66;84.76;101835.19;4991084;28;20455;-69
2021/06/22 01:51:16;;;;;;;16.38;6.32;;;;;;;12.64;85.79;101846.88;4993588;28;20062;-69
2021/06/22 01:53:50;;;;;;;13.38;6.03;;;;;;;12.65;85.11;101837.91;4989498;28;20061;-69
2021/06/22 01:56:19;;;;;;;13.68;6.72;;;;;;;12.66;85.10;101837.88;4995877;28;20448;-69
2021/06/22 01:58:47;;;;;;;15.20;7.25;;;;;;;12.65;85.25;101838.81;4991570;28;20084;-70
2021/06/22 02:01:16;;;;;;;13.70;6.72;;;;;;;12.65;85.24;101838.81;4996127;28;20164;-69
2021/06/22 02:03:44;;;;;;;16.88;9.02;;;;;;;12.65;85.51;101835.25;4991324;28;20369;-69
2021/06/22 02:06:11;;;;;;;15.15;7.15;;;;;;;12.64;85.77;101836.16;4994979;28;20183;-69
2021/06/22 02:08:39;;;;;;;13.13;7.32;;;;;;;12.66;85.62;101831.66;4994432;28;20342;-69
2021/06/22 02:11:07;;;;;;;17.25;7.60;;;;;;;12.66;86.03;101826.31;4995778;28;20062;-69
2021/06/22 02:13:36;;;;;;;15.35;6.90;;;;;;;12.68;86.54;101829.81;4996215;28;20060;-69
2021/06/22 02:16:05;;;;;;;16.17;7.13;;;;;;;12.70;86.92;101827.97;4992914;28;20085;-68
2021/06/22 02:18:33;;;;;;;13.18;6.13;;;;;;;12.73;86.15;101827.03;4992239;28;20065;-68
2021/06/22 02:21:01;;;;;;;15.68;6.55;;;;;;;12.72;85.97;101823.47;4997669;28;20276;-68
2021/06/22 02:23:29;;;;;;;16.27;6.70;;;;;;;12.76;86.24;101824.28;4991523;28;20078;-68
2021/06/22 02:25:57;;;;;;;15.20;6.80;;;;;;;12.77;86.49;101823.34;4997933;28;20055;-68
2021/06/22 02:28:24;;;;;;;14.40;6.75;;;;;;;12.81;85.81;101822.34;4994565;28;20070;-68
2021/06/22 02:30:55;;;;;;;16.00;6.53;;;;;;;12.81;86.21;101828.59;4992940;28;20121;-68
2021/06/22 02:33:23;;;;;;;16.13;6.80;;;;;;;12.82;86.01;101818.75;4993596;28;20065;-68
2021/06/22 02:35:51;;;;;;;15.55;6.28;;;;;;;12.82;85.54;101822.31;4989575;28;20142;-68
2021/06/22 02:38:20;;;;;;;13.45;6.05;;;;;;;12.83;85.69;101820.50;4996675;28;20053;-68
2021/06/22 02:40:49;;;;;;;14.07;6.72;;;;;;;12.82;85.97;101816.97;4990847;28;20127;-68
2021/06/22 02:43:17;;;;;;;15.25;7.10;;;;;;;12.89;86.09;101815.00;4994282;28;20066;-68
2021/06/22 02:45:44;;;;;;;13.52;6.95;;;;;;;12.87;86.01;101820.41;4993156;28;20412;-69
2021/06/22 02:48:14;;;;;;;19.85;8.15;;;;;;;12.88;86.09;101821.28;4993262;28;20066;-69
2021/06/22 02:50:42;;;;;;;19.33;7.45;;;;;;;12.86;86.50;101821.31;4991879;28;20062;-69
2021/06/22 02:53:11;;;;;;;15.18;7.80;;;;;;;12.91;86.02;101826.56;4994987;28;20366;-68
2021/06/22 02:55:39;;;;;;;14.63;7.00;;;;;;;12.94;85.58;101822.91;4990186;28;20352;-69
2021/06/22 02:58:08;;;;;;;14.90;7.43;;;;;;;12.93;86.38;101827.38;4996966;28;20064;-69
2021/06/22 03:00:36;;;;;;;19.67;7.25;;;;;;;12.99;85.62;101831.69;4991520;28;20156;-68
2021/06/22 03:03:04;;;;;;;15.23;7.70;;;;;;;12.96;85.54;101826.44;4996163;28;20066;-68
2021/06/22 03:05:34;;;;;;;13.30;5.90;;;;;;;12.95;85.77;101843.44;4990791;28;20341;-69
2021/06/22 03:08:02;;;;;;;11.57;5.90;;;;;;;12.89;84.90;101834.63;4995125;28;20070;-70
2021/06/22 03:10:30;;;;;;;14.40;5.40;;;;;;;12.82;85.15;101843.75;4999815;28;20066;-71
2021/06/22 03:12:58;;;;;;;12.48;5.53;;;;;;;12.82;84.87;101850.88;4995128;28;20086;-70
2021/06/22 03:15:26;;;;;;;14.15;5.25;;;;;;;12.81;85.62;101850.00;4999458;28;20069;-70
2021/06/22 03:17:55;;;;;;;15.27;5.65;;;;;;;12.80;86.57;101848.25;4997329;28;20062;-71
2021/06/22 03:20:23;;;;;;;15.38;6.05;;;;;;;12.80;86.92;101863.44;4994744;28;20079;-70
2021/06/22 03:22:52;;;;;;;13.43;6.63;;;;;;;12.69;88.81;101861.03;4994743;28;20058;-73
2021/06/22 03:25:20;;;;;;;16.08;6.72;;;;;;;12.61;89.25;101863.03;4994590;28;20058;-71
2021/06/22 03:27:49;;;;;;;19.13;6.20;;;;;;;12.56;90.32;101857.75;4998191;28;20061;-71
2021/06/22 03:30:17;;;;;;;13.93;6.40;;;;;;;12.52;90.60;101864.13;4995195;28;20073;-71
2021/06/22 03:32:47;;;;;;;17.83;7.07;;;;;;;12.46;91.12;101865.16;4993141;28;20125;-71
2021/06/22 03:35:16;;;;;;;14.98;6.55;;;;;;;12.45;91.83;101874.09;4995565;28;20419;-69
2021/06/22 03:37:44;;;;;;;16.13;6.82;;;;;;;12.46;91.57;101873.19;4992665;28;20165;-68
2021/06/22 03:40:14;;;;;;;19.67;6.63;;;;;;;12.45;91.47;101867.88;4993969;28;20070;-71
2021/06/22 03:42:45;;;;;;;19.90;7.38;;;;;;;12.45;92.39;101882.13;4993556;28;20333;-71
2021/06/22 03:45:13;;;;;;;16.30;6.80;;;;;;;12.35;92.39;101874.34;4996681;28;20073;-70
2021/06/22 03:47:42;;;;;;;16.45;7.00;;;;;;;12.40;92.53;101884.03;4993023;28;20059;-70
2021/06/22 03:50:11;;;;;;;14.05;6.35;;;;;;;12.41;92.47;101874.19;4993894;28;20058;-70
2021/06/22 03:52:38;;;;;;;20.50;6.78;;;;;;;12.36;92.78;101882.34;4991864;28;20406;-70
2021/06/22 03:55:26;;;;;;;16.67;7.15;;;;;;;12.36;93.34;101866.28;4992928;28;20070;-70
2021/06/22 03:57:58;;;;;;;17.42;7.22;;;;;;;12.36;93.09;101868.06;4996371;28;20227;-72
2021/06/22 04:00:26;;;;;;;24.77;9.35;;;;;;;12.35;94.16;101864.53;4993759;28;20828;-70
2021/06/22 04:02:58;;;;;;;17.63;7.18;;;;;;;12.35;94.24;101860.97;4992417;28;20058;-70
2021/06/22 04:05:26;;;;;;;23.90;8.18;;;;;;;12.41;94.83;101863.50;4998610;28;20504;-70
2021/06/22 04:07:54;;;;;;;20.10;7.28;;;;;;;12.42;94.32;101857.22;4993952;28;20157;-70
2021/06/22 04:10:22;;;;;;;17.48;7.50;;;;;;;12.45;94.02;101860.72;4998126;28;20108;-70
2021/06/22 04:12:50;;;;;;;18.48;7.53;;;;;;;12.45;93.91;101860.72;4992611;28;20065;-71
2021/06/22 04:15:19;;;;;;;22.95;7.93;;;;;;;12.49;95.17;101861.50;4994602;28;20160;-71
2021/06/22 04:17:48;;;;;;;20.35;8.27;;;;;;;12.52;95.13;101864.13;4996281;28;20062;-70
2021/06/22 04:20:17;;;;;;;16.60;6.95;;;;;;;12.57;94.76;101856.00;4993898;28;20062;-70
2021/06/22 04:22:45;;;;;;;16.25;6.88;;;;;;;12.58;94.14;101873.78;4996376;28;20073;-69
2021/06/22 04:25:13;;;;;;;17.35;7.57;;;;;;;12.58;93.54;101865.75;4992104;28;20062;-70
2021/06/22 04:27:41;;;;;;;17.67;6.97;;;;;;;12.55;93.96;101869.41;4993799;28;20457;-69
2021/06/22 04:30:10;;;;;;;18.00;7.32;;;;;;;12.61;93.91;101871.91;4995267;28;20081;-69
2021/06/22 04:32:39;;;;;;;22.33;8.85;;;;;;;12.64;92.94;101873.66;4994767;28;20061;-70
2021/06/22 04:35:08;;;;;;;27.85;10.15;;;;;;;12.64;92.65;101871.84;4992279;28;20065;-70
2021/06/22 04:37:36;;;;;;;22.80;9.55;;;;;;;12.70;91.31;101871.72;4996935;28;20064;-70
2021/06/22 04:40:05;;;;;;;22.73;9.50;;;;;;;12.72;91.88;101874.34;4990525;28;20061;-69
2021/06/22 04:42:33;;;;;;;24.45;9.88;;;;;;;12.74;90.54;101871.66;4996963;28;20302;-71
2021/06/22 04:45:01;;;;;;;26.30;11.05;;;;;;;12.70;88.73;101870.81;4994680;28;20116;-71
2021/06/22 04:47:28;;;;;;;23.40;11.82;;;;;;;12.75;89.24;101865.34;4995128;28;20074;-71
2021/06/22 04:50:00;;;;;;;30.38;12.77;;;;;;;12.80;88.15;101875.03;4993429;28;20460;-71
2021/06/22 04:52:28;;;;;;;24.48;12.02;;;;;;;12.81;87.81;101875.91;4991953;28;20062;-71
2021/06/22 04:54:56;;;;;;;28.85;13.30;;;;;;;12.81;87.27;101879.47;4993624;28;20348;-71
2021/06/22 04:57:24;;;;;;;30.10;14.10;;;;;;;12.84;87.39;101881.22;4994358;28;20101;-71
2021/06/22 04:59:52;;;;;;;32.00;14.00;;;;;;;12.85;86.76;101888.31;4994995;28;20408;-70
2021/06/22 05:02:20;;;;;;;33.00;15.15;;;;;;;12.85;85.88;101889.19;4992838;28;20053;-71
2021/06/22 05:04:48;;;;;;;34.38;15.25;;;;;;;12.83;84.78;101895.50;4994031;28;20068;-69
2021/06/22 05:07:17;;;;;;;31.15;14.80;;;;;;;12.87;84.40;101899.84;4992499;28;20054;-69
2021/06/22 05:09:45;;;;;;;33.92;16.13;;;;;;;12.87;85.00;101906.13;4994491;28;20066;-69
2021/06/22 05:12:13;;;;;;;31.92;14.70;;;;;;;12.88;83.99;101907.84;4995533;28;20075;-68
2021/06/22 05:14:41;;;;;;;32.60;16.10;;;;;;;12.87;83.88;101913.25;4996973;28;20069;-68
2021/06/22 05:17:09;;;;;;;32.50;15.15;;;;;;;12.88;83.75;101910.53;4992798;28;20068;-69
2021/06/22 05:19:36;;;;;;;32.03;15.80;;;;;;;12.94;83.29;101914.88;4994108;28;20160;-69
2021/06/22 05:22:04;;;;;;;34.20;16.63;;;;;;;12.94;82.96;101913.97;4993699;28;20066;-69
2021/06/22 05:24:33;;;;;;;31.02;16.33;;;;;;;12.91;82.68;101923.00;4996897;28;20470;-69
2021/06/22 05:27:03;;;;;;;33.97;16.30;;;;;;;12.88;82.42;101921.25;4988420;28;20149;-68
2021/06/22 05:29:31;;;;;;;26.33;13.18;;;;;;;12.83;81.03;101922.28;4996545;28;20346;-69
2021/06/22 05:32:00;;;;;;;31.13;15.65;;;;;;;12.82;82.23;101920.53;4990357;28;20073;-70
2021/06/22 05:34:28;;;;;;;29.00;15.18;;;;;;;12.82;81.32;101921.41;4996422;28;20058;-69
2021/06/22 05:36:56;;;;;;;30.98;14.70;;;;;;;12.88;81.30;101910.53;4996003;28;20084;-69
2021/06/22 05:39:24;;;;;;;31.80;14.75;;;;;;;12.95;80.79;101915.75;4995139;28;20062;-68
2021/06/22 05:41:53;;;;;;;31.42;14.55;;;;;;;12.88;80.81;101923.94;4996628;28;20054;-68
2021/06/22 05:44:21;;;;;;;34.70;17.08;;;;;;;12.94;79.97;101911.31;4995369;28;20076;-67
2021/06/22 05:46:49;;;;;;;27.77;15.05;;;;;;;13.00;80.37;101917.38;4992344;28;20073;-70
2021/06/22 05:49:17;;;;;;;30.42;14.25;;;;;;;12.96;78.49;101912.16;4996769;28;20150;-70
2021/06/22 05:51:45;;;;;;;29.63;15.55;;;;;;;13.10;79.17;101914.50;4992281;28;20058;-70
2021/06/22 05:54:13;;;;;;;35.50;16.13;;;;;;;13.07;79.04;101916.31;4998666;28;20057;-68
2021/06/22 05:56:41;;;;;;;25.85;15.05;;;;;;;13.15;78.23;101918.81;4998413;28;20062;-68
2021/06/22 05:59:10;;;;;;;27.20;13.27;;;;;;;13.29;77.96;101920.25;4997569;28;20209;-69
2021/06/22 06:01:39;;;;;;;29.10;15.15;;;;;;;13.29;76.75;101921.13;4999203;28;20054;-68
2021/06/22 06:04:07;;;;;;;25.85;13.32;;;;;;;13.33;76.32;101917.50;4990811;28;20066;-71
2021/06/22 06:06:34;;;;;;;25.55;13.25;;;;;;;13.34;75.99;101913.00;4994193;28;20073;-70
2021/06/22 06:09:02;;;;;;;26.80;13.77;;;;;;;13.55;75.58;101920.47;4990053;28;20554;-70
2021/06/22 06:11:30;;;;;;;30.85;13.52;;;;;;;13.64;75.12;101916.66;4994004;28;20285;-71
2021/06/22 06:13:58;;;;;;;27.13;14.25;;;;;;;13.76;74.08;101921.69;4989618;28;20117;-69
2021/06/22 06:16:27;;;;;;;29.40;14.73;;;;;;;13.93;72.91;101917.63;4988700;28;20070;-69
2021/06/22 06:18:55;;;;;;;28.20;14.48;;;;;;;13.80;71.53;101915.28;4990941;28;20412;-69
2021/06/22 06:21:24;;;;;;;28.45;14.63;;;;;;;13.79;72.14;101916.22;4996541;28;20090;-69
2021/06/22 06:23:56;;;;;;;29.45;13.80;;;;;;;13.70;71.70;101920.97;4994913;28;20445;-69
2021/06/22 06:26:25;;;;;;;21.63;12.73;;;;;;;13.76;71.72;101928.84;4997031;28;20104;-68
2021/06/22 06:28:55;;;;;;;26.58;12.55;;;;;;;14.28;70.96;101927.31;4990775;28;20061;-69
2021/06/22 06:31:22;;;;;;;26.08;13.20;;;;;;;14.49;69.13;101922.19;4999538;28;20066;-69
2021/06/22 06:33:52;;;;;;;25.55;13.45;;;;;;;14.65;69.43;101926.19;4992003;28;20144;-69
2021/06/22 06:36:20;;;;;;;24.85;13.18;;;;;;;14.50;67.67;101923.97;4995657;28;20054;-70
2021/06/22 06:38:49;;;;;;;24.05;12.77;;;;;;;14.57;66.79;101929.13;4994460;28;20322;-69
2021/06/22 06:41:17;;;;;;;25.45;12.73;;;;;;;14.76;67.26;101925.84;4998988;28;20151;-70
2021/06/22 06:43:45;;;;;;;27.38;13.32;;;;;;;14.64;66.63;101927.16;4997168;28;20062;-70
2021/06/22 06:46:13;;;;;;;21.70;12.85;;;;;;;15.01;66.22;101928.63;4995663;28;20108;-70
2021/06/22 06:48:41;;;;;;;24.02;12.10;;;;;;;15.26;64.95;101931.34;4998055;28;20677;-69
2021/06/22 06:51:11;;;;;;;28.08;12.27;;;;;;;15.12;66.56;101939.03;4995651;28;20453;-68
2021/06/22 06:53:38;;;;;;;23.85;11.50;;;;;;;14.90;65.20;101936.19;4994395;28;20073;-70
2021/06/22 06:56:06;;;;;;;25.30;11.43;;;;;;;15.21;65.01;101948.59;4994780;28;20069;-68
2021/06/22 06:58:34;;;;;;;23.42;12.98;;;;;;;14.93;64.62;101944.09;4993246;28;20066;-68
2021/06/22 07:01:02;;;;;;;22.30;11.85;;;;;;;14.97;64.62;101947.59;4993988;28;20100;-69
2021/06/22 07:03:29;;;;;;;27.75;12.98;;;;;;;15.00;65.22;101953.75;4999770;28;20495;-67
2021/06/22 07:05:57;;;;;;;23.33;12.73;;;;;;;15.07;64.74;101955.31;4993401;28;20058;-67
2021/06/22 07:08:26;;;;;;;25.40;11.48;;;;;;;14.97;64.95;101955.66;4998902;28;20085;-68
2021/06/22 07:10:54;;;;;;;23.50;12.85;;;;;;;15.17;63.65;101963.03;4989124;28;20173;-68
2021/06/22 07:13:22;;;;;;;19.30;11.75;;;;;;;15.18;64.28;101962.13;4995808;28;20062;-68
2021/06/22 07:15:50;;;;;;;23.77;11.40;;;;;;;15.47;63.94;101970.06;4996212;28;20066;-67
2021/06/22 07:18:17;;;;;;;24.17;12.40;;;;;;;15.48;62.03;101970.97;4992474;28;20057;-67
2021/06/22 07:20:45;;;;;;;22.52;11.73;;;;;;;15.35;61.60;101973.19;4998680;28;20065;-67
2021/06/22 07:23:14;;;;;;;20.73;10.77;;;;;;;15.49;62.49;101978.97;4995971;28;20053;-68
2021/06/22 07:25:43;;;;;;;19.15;11.32;;;;;;;15.91;61.28;101974.84;4995528;28;20058;-68
2021/06/22 07:28:11;;;;;;;19.73;11.57;;;;;;;17.07;59.36;101968.56;4998010;28;20075;-68
2021/06/22 07:30:39;;;;;;;20.08;12.07;;;;;;;17.54;58.09;101971.06;4993448;28;20069;-68
2021/06/22 07:33:07;;;;;;;22.85;12.80;;;;;;;17.74;56.35;101969.31;5001115;28;20445;-67
2021/06/22 07:35:34;;;;;;;21.85;11.77;;;;;;;17.94;54.99;101967.59;4994547;28;20050;-68
2021/06/22 07:38:02;;;;;;;22.20;11.93;;;;;;;17.63;53.47;101961.69;4999201;28;20587;-68
2021/06/22 07:40:30;;;;;;;19.58;11.75;;;;;;;17.32;55.12;101965.72;4997178;28;20469;-67
2021/06/22 07:42:59;;;;;;;20.58;11.10;;;;;;;18.27;54.43;101963.34;4995760;28;20066;-67
2021/06/22 07:45:27;;;;;;;21.77;10.98;;;;;;;18.71;53.06;101967.59;4996417;28;20080;-68
2021/06/22 07:47:56;;;;;;;19.90;11.85;;;;;;;18.26;53.17;101963.41;4993169;28;20139;-68
2021/06/22 07:50:25;;;;;;;19.13;12.07;;;;;;;18.59;51.93;101973.56;4997556;28;20062;-68
2021/06/22 07:52:53;;;;;;;21.35;11.55;;;;;;;18.61;50.80;101964.44;4989406;28;20057;-69
2021/06/22 07:55:23;;;;;;;20.73;11.23;;;;;;;18.29;49.56;101956.03;4995385;28;20505;-68
2021/06/22 07:57:52;;;;;;;21.27;11.55;;;;;;;18.03;51.41;101967.16;4995997;28;20113;-68
2021/06/22 08:00:31;;;;;;;23.25;12.25;;;;;;;17.71;51.79;101964.94;4995503;28;20068;-68
2021/06/22 08:02:59;;;;;;;20.98;11.35;;;;;;;17.55;52.68;101963.84;4997685;28;20077;-67
2021/06/22 08:05:26;;;;;;;19.23;10.95;;;;;;;17.99;53.52;101968.25;4997892;28;20069;-68
2021/06/22 08:07:55;;;;;;;19.25;10.93;;;;;;;17.21;50.14;101956.34;4992912;28;20109;-67
2021/06/22 08:10:23;;;;;;;21.35;11.43;;;;;;;17.35;51.78;101962.03;4999183;28;20479;-68
2021/06/22 08:12:50;;;;;;;19.40;11.82;;;;;;;17.24;51.67;101958.91;4991199;28;20073;-68
2021/06/22 08:15:18;;;;;;;21.05;10.35;;;;;;;17.05;51.22;101959.66;4998289;28;20144;-69
2021/06/22 08:17:48;;;;;;;16.45;10.18;;;;;;;17.15;50.27;101954.78;4996744;28;20101;-69
2021/06/22 08:20:17;;;;;;;17.67;10.07;;;;;;;17.23;50.55;101952.66;4993890;28;20081;-67
2021/06/22 08:22:47;;;;;;;19.92;11.35;;;;;;;17.48;51.51;101959.66;4997395;28;20970;-68
2021/06/22 08:25:14;;;;;;;19.55;11.48;;;;;;;17.53;51.68;101968.44;4992047;28;20153;-67
2021/06/22 08:27:42;;;;;;;21.30;11.77;;;;;;;17.41;50.18;101968.97;4997443;28;20127;-67
2021/06/22 08:30:11;;;;;;;21.50;12.23;;;;;;;17.53;50.53;101969.31;4997713;28;20073;-67
2021/06/22 08:32:39;;;;;;;20.73;11.80;;;;;;;18.15;50.60;101957.63;4992938;28;20092;-71
2021/06/22 08:35:09;;;;;;;21.42;11.75;;;;;;;18.44;48.62;101954.44;4993983;28;20062;-71
2021/06/22 08:37:37;;;;;;;22.30;11.45;;;;;;;18.53;48.95;101955.81;4992532;28;20356;-67
2021/06/22 08:40:08;;;;;;;19.15;11.98;;;;;;;18.73;49.14;101959.38;4995749;28;20352;-67
2021/06/22 08:42:38;;;;;;;19.65;10.50;;;;;;;18.78;46.05;101949.22;4996540;28;20064;-67
2021/06/22 08:45:10;;;;;;;21.65;11.27;;;;;;;18.15;48.07;101952.22;4989131;28;20542;-69
2021/06/22 08:47:38;;;;;;;20.55;10.70;;;;;;;18.47;49.19;101953.41;4997377;28;20068;-69
2021/06/22 08:50:10;;;;;;;18.23;9.98;;;;;;;18.59;48.36;101955.53;4993858;28;20062;-69
2021/06/22 08:52:38;;;;;;;20.83;10.48;;;;;;;19.07;48.28;101955.94;4994863;28;20476;-68
2021/06/22 08:55:08;;;;;;;22.45;11.05;;;;;;;19.05;47.54;101952.41;4995450;28;20091;-68
2021/06/22 08:57:36;;;;;;;19.40;11.55;;;;;;;19.03;47.43;101948.91;4991342;28;20062;-68
2021/06/22 09:00:05;;;;;;;21.85;11.63;;;;;;;19.49;45.68;101957.38;4995355;28;20144;-68
2021/06/22 09:02:34;;;;;;;19.33;11.23;;;;;;;20.51;46.40;101958.22;4991477;28;20069;-68
2021/06/22 09:05:04;;;;;;;16.98;10.15;;;;;;;20.86;45.05;101949.09;4995460;28;20340;-68
2021/06/22 09:07:47;;;;;;;19.58;11.70;;;;;;;20.95;45.80;101962.09;4993250;28;20069;-68
2021/06/22 09:10:22;;;;;;;21.25;12.20;;;;;;;21.36;45.13;101947.91;4987258;28;20061;-68
2021/06/22 09:12:51;;;;;;;19.83;12.18;;;;;;;20.73;45.44;101959.75;4993891;28;20484;-69
2021/06/22 09:15:21;;;;;;;17.80;11.88;;;;;;;20.77;45.27;101964.06;4992672;28;20094;-70
2021/06/22 09:17:50;;;;;;;19.00;12.05;;;;;;;20.71;45.80;101967.09;4993115;28;20058;-69
2021/06/22 09:20:40;;;;;;;17.45;11.43;;;;;;;19.86;45.50;101965.44;4989987;28;20069;-69
2021/06/22 09:23:15;;;;;;;20.13;11.40;;;;;;;20.27;46.52;101963.19;4995068;28;20467;-68
2021/06/22 09:25:44;;;;;;;17.88;11.02;;;;;;;20.27;44.65;101962.31;4992676;28;20088;-68
2021/06/22 09:28:13;;;;;;;20.90;12.07;;;;;;;19.77;45.11;101935.19;4994625;28;20057;-68
2021/06/22 09:30:46;;;;;;;20.27;11.70;;;;;;;19.28;47.57;101953.09;4991183;28;20124;-69
2021/06/22 09:33:16;;;;;;;20.95;11.55;;;;;;;19.09;48.40;101958.56;4992928;28;20073;-68
2021/06/22 09:35:44;;;;;;;17.15;10.82;;;;;;;19.17;46.99;101948.22;4993663;28;20116;-67
2021/06/22 09:38:14;;;;;;;18.63;11.88;;;;;;;18.98;48.39;101950.97;4995591;28;20093;-69
2021/06/22 09:40:43;;;;;;;20.70;11.23;;;;;;;18.96;47.06;101944.78;4997174;28;20113;-68
2021/06/22 09:43:11;;;;;;;20.67;12.52;;;;;;;18.92;48.02;101946.75;4993034;28;20069;-70
2021/06/22 09:45:43;;;;;;;19.55;11.95;;;;;;;20.00;46.47;101949.31;4994180;28;20064;-68
2021/06/22 09:48:11;;;;;;;17.10;10.52;;;;;;;20.07;43.36;101950.72;4991898;28;20058;-67
2021/06/22 09:50:44;;;;;;;21.13;12.18;;;;;;;20.33;42.70;101945.72;4994529;28;20058;-69
2021/06/22 09:53:33;;;;;;;17.10;10.63;;;;;;;21.06;42.13;101948.78;4992618;28;20120;-68
2021/06/22 09:56:01;;;;;;;15.43;10.68;;;;;;;21.17;41.68;101940.00;4997249;28;20098;-68
2021/06/22 09:58:36;;;;;;;18.25;11.45;;;;;;;19.71;43.76;101953.56;4993279;28;20100;-68
2021/06/22 10:01:04;;;;;;;17.23;10.68;;;;;;;20.56;43.24;101954.38;4995956;28;20069;-67
2021/06/22 10:03:36;;;;;;;14.95;9.77;;;;;;;21.18;42.47;101941.75;4995017;28;20445;-68
2021/06/22 10:06:09;;;;;;;15.52;10.38;;;;;;;21.22;42.62;101940.59;4996131;28;20065;-68
2021/06/22 10:08:52;;;;;;;17.13;10.43;;;;;;;20.17;41.96;101958.38;4992067;28;20148;-68
2021/06/22 10:11:33;;;;;;;14.77;9.90;;;;;;;20.38;42.43;101964.41;4996739;28;20153;-70
2021/06/22 10:14:02;;;;;;;17.52;9.25;;;;;;;19.76;42.81;101965.06;4992181;28;20057;-68
2021/06/22 10:16:32;;;;;;;17.63;10.68;;;;;;;20.06;44.16;101962.53;4995663;28;20064;-68
2021/06/22 10:19:02;;;;;;;17.63;9.45;;;;;;;19.79;46.42;101964.91;4991387;28;20330;-70
2021/06/22 10:21:31;;;;;;;19.75;11.07;;;;;;;18.94;48.06;101969.19;4990607;28;20118;-70
2021/06/22 10:24:00;;;;;;;17.35;10.13;;;;;;;18.98;46.43;101973.47;4990054;28;20433;-70
2021/06/22 10:26:29;;;;;;;16.35;10.80;;;;;;;19.27;48.16;101968.44;4993998;28;20070;-69
2021/06/22 10:28:59;;;;;;;16.08;10.23;;;;;;;19.76;46.26;101970.47;4989847;28;20065;-70
2021/06/22 10:31:29;;;;;;;16.40;10.38;;;;;;;19.27;46.11;101976.56;4993314;28;20066;-69
2021/06/22 10:33:58;;;;;;;16.25;10.90;;;;;;;18.96;47.04;101975.38;4986928;28;20427;-69
2021/06/22 10:36:30;;;;;;;19.38;10.93;;;;;;;18.90;47.66;101972.09;4999156;28;20104;-68
2021/06/22 10:39:05;;;;;;;18.58;9.68;;;;;;;19.10;47.70;101966.56;4993406;28;20077;-68
2021/06/22 10:41:37;;;;;;;15.35;9.45;;;;;;;19.38;47.88;101962.50;4997767;28;20520;-69
2021/06/22 10:44:40;;;;;;;16.50;9.05;;;;;;;19.54;47.39;101967.97;4993928;28;20074;-68
2021/06/22 10:47:25;;;;;;;15.60;8.93;;;;;;;19.93;46.23;101972.28;4995454;28;20090;-68
2021/06/22 10:50:09;;;;;;;14.40;8.77;;;;;;;19.58;47.96;101966.84;4988701;28;20677;-67
2021/06/22 10:53:01;;;;;;;15.88;8.43;;;;;;;19.38;46.60;101963.34;4991648;28;20149;-68
2021/06/22 10:56:05;;;;;;;15.23;8.50;;;;;;;19.44;46.69;101966.69;4988741;28;20058;-67
2021/06/22 10:58:33;;;;;;;14.68;7.93;;;;;;;19.47;47.95;101972.81;4993051;28;20104;-67
2021/06/22 11:01:16;;;;;;;10.70;7.93;;;;;;;19.67;45.77;101958.25;4990009;28;20054;-68
2021/06/22 11:03:44;;;;;;;12.82;7.90;;;;;;;20.07;45.20;101963.41;4987942;28;20065;-70
2021/06/22 11:06:36;;;;;;;15.90;7.47;;;;;;;21.03;45.06;101953.53;4992889;28;20076;-68
2021/06/22 11:09:20;;;;;;;11.88;7.22;;;;;;;20.78;43.20;101965.78;4976085;28;20070;-68
2021/06/22 11:11:48;;;;;;;12.23;7.40;;;;;;;20.27;44.63;101967.72;4996444;28;20620;-68
2021/06/22 11:14:17;;;;;;;15.00;7.30;;;;;;;20.13;45.86;101968.50;4997697;28;20102;-67
2021/06/22 11:16:46;;;;;;;14.25;7.80;;;;;;;19.99;45.42;101968.34;4990438;28;20066;-67
2021/06/22 11:19:15;;;;;;;15.52;8.13;;;;;;;19.57;45.64;101960.56;4999702;28;20062;-68
2021/06/22 11:21:54;;;;;;;14.93;8.48;;;;;;;19.92;45.27;101963.28;4991007;28;20208;-67
2021/06/22 11:24:27;;;;;;;15.20;8.32;;;;;;;20.19;46.64;101961.84;4995614;28;20062;-68
2021/06/22 11:27:16;;;;;;;14.80;8.38;;;;;;;20.42;44.96;101957.88;4990595;28;20061;-68